Cabazon, CA (92230)

6:39 AM PDT on September 05, 2015 (GMT -0700)
Aspen Ln | | Change Station
CLOSE
Current Station
Personal Weather Station
Location: Banning, CA
Elevation: 2648 ft
Nearby Weather Stations

Elev 2648 ft 33.94 °N, 116.92 °W | Updated 5 minutes ago

Clear
Clear
53.2 °F
Feels Like 53.2 °F
N
2.7
Wind Variable Wind from West

Today
High -- | Low -- °F
--% Chance of Precip.
Yesterday
High -- | Low -- °F
Precip. -- in
6:23 AM 7:07 PM
Waning Gibbous, 48% visible
Pressure 29.81 in
Visibility 10.0 miles
Clouds Clear
Dew Point 44 °F
Humidity 72%
Rainfall 0.00 in
Snow Depth Not available.
UV 0 out of 12
Pollen 8.00 out of 12
Air Quality Not available.
Flu Activity Not available.
METAR KPSP 051253Z AUTO 32004KT 10SM CLR 22/11 A2982 RMK AO2 SLP092 T02220106 TSNO
Pressure 29.81 in
Visibility 10.0 miles
Clouds Clear
Dew Point 44 °F
Humidity 72%
Rainfall 0.00 in
Snow Depth Not available.
UV 0 out of 12
Pollen 8.00 out of 12
Air Quality Not available.
Flu Activity Not available.
METAR KPSP 051253Z AUTO 32004KT 10SM CLR 22/11 A2982 RMK AO2 SLP092 T02220106 TSNO

10-Day Weather Forecast

×

Almanac

Astronomy

Sep. 05, 2015 Rise Set
Actual Time
Civil Twilight
Nautical Twilight
Astronomical Twilight
Moon
Length of Visible Light
Length of Day
Tomorrow will be .
, % of the Moon is Illuminated

Today's Extremes

State Highs State Lows

Community

WunderPhotos

Upload Photos

1,852,454 photos uploaded!

WunderBlogs® & News

Nearby

Air Quality

  Air Quality AQ Index Pollutant
Not available.

Snow Depth

Station Depth Elevation

Earthquake Activity

City Distance Mag. Time & Date
Minimum magnitude displayed is 2.5.

Coastal Water Temperatures

Place Temperature

Stations

Nearby Weather Stations

Station Location Temp. Windchill Dew Point Humidity Wind Precip. Elev Updated Type